sensor_id;sensor_type;location;lat;lon;timestamp;pressure;altitude;pressure_sealevel;temperature;humidity
72116;BME280;59991;52.140;5.428;2022-07-29T00:00:12;101853.09;;;16.65;61.46
72116;BME280;59991;52.140;5.428;2022-07-29T00:00:44;101851.13;;;16.65;61.38
72116;BME280;59991;52.140;5.428;2022-07-29T00:01:16;101846.41;;;16.66;61.46
72116;BME280;59991;52.140;5.428;2022-07-29T00:01:49;101841.66;;;16.63;61.02
72116;BME280;59991;52.140;5.428;2022-07-29T00:02:23;101849.16;;;16.66;61.33
72116;BME280;59991;52.140;5.428;2022-07-29T00:02:54;101845.63;;;16.65;60.96
72116;BME280;59991;52.140;5.428;2022-07-29T00:03:26;101850.34;;;16.65;61.47
72116;BME280;59991;52.140;5.428;2022-07-29T00:03:57;101848.78;;;16.64;61.36
72116;BME280;59991;52.140;5.428;2022-07-29T00:04:29;101845.22;;;16.63;61.05
72116;BME280;59991;52.140;5.428;2022-07-29T00:05:01;101848.34;;;16.62;61.12
72116;BME280;59991;52.140;5.428;2022-07-29T00:06:24;101845.19;;;16.56;61.31
72116;BME280;59991;52.140;5.428;2022-07-29T00:06:55;101846.00;;;16.53;61.48
72116;BME280;59991;52.140;5.428;2022-07-29T00:07:27;101844.81;;;16.54;61.35
72116;BME280;59991;52.140;5.428;2022-07-29T00:07:58;101838.53;;;16.53;61.82
72116;BME280;59991;52.140;5.428;2022-07-29T00:08:30;101835.34;;;16.55;61.54
72116;BME280;59991;52.140;5.428;2022-07-29T00:09:01;101837.34;;;16.54;61.49
72116;BME280;59991;52.140;5.428;2022-07-29T00:09:33;101838.13;;;16.51;61.48
72116;BME280;59991;52.140;5.428;2022-07-29T00:10:22;101835.38;;;16.48;61.47
72116;BME280;59991;52.140;5.428;2022-07-29T00:11:12;101838.91;;;16.45;61.42
72116;BME280;59991;52.140;5.428;2022-07-29T00:11:43;101834.19;;;16.42;61.22
72116;BME280;59991;52.140;5.428;2022-07-29T00:12:15;101831.81;;;16.40;61.39
72116;BME280;59991;52.140;5.428;2022-07-29T00:12:55;101834.56;;;16.40;61.68
72116;BME280;59991;52.140;5.428;2022-07-29T00:13:26;101831.44;;;16.38;61.68
72116;BME280;59991;52.140;5.428;2022-07-29T00:14:21;101836.13;;;16.38;61.66
72116;BME280;59991;52.140;5.428;2022-07-29T00:14:54;101835.34;;;16.37;61.72
72116;BME280;59991;52.140;5.428;2022-07-29T00:15:26;101829.47;;;16.35;61.70
72116;BME280;59991;52.140;5.428;2022-07-29T00:15:59;101839.28;;;16.36;61.77
72116;BME280;59991;52.140;5.428;2022-07-29T00:16:35;101834.56;;;16.37;61.78
72116;BME280;59991;52.140;5.428;2022-07-29T00:17:44;101830.25;;;16.36;61.55
72116;BME280;59991;52.140;5.428;2022-07-29T00:18:15;101825.16;;;16.34;62.01
72116;BME280;59991;52.140;5.428;2022-07-29T00:19:04;101832.22;;;16.32;62.19
72116;BME280;59991;52.140;5.428;2022-07-29T00:19:38;101831.06;;;16.33;62.15
72116;BME280;59991;52.140;5.428;2022-07-29T00:20:13;101827.91;;;16.31;61.78
72116;BME280;59991;52.140;5.428;2022-07-29T00:20:44;101824.34;;;16.30;62.15
72116;BME280;59991;52.140;5.428;2022-07-29T00:21:15;101825.94;;;16.31;61.90
72116;BME280;59991;52.140;5.428;2022-07-29T00:21:47;101831.84;;;16.30;62.18
72116;BME280;59991;52.140;5.428;2022-07-29T00:22:19;101829.47;;;16.28;62.44
72116;BME280;59991;52.140;5.428;2022-07-29T00:22:50;101829.47;;;16.24;62.16
72116;BME280;59991;52.140;5.428;2022-07-29T00:23:23;101829.84;;;16.27;62.25
72116;BME280;59991;52.140;5.428;2022-07-29T00:23:54;101830.66;;;16.27;62.52
72116;BME280;59991;52.140;5.428;2022-07-29T00:24:25;101827.50;;;16.25;62.31
72116;BME280;59991;52.140;5.428;2022-07-29T00:24:57;101825.94;;;16.28;61.97
72116;BME280;59991;52.140;5.428;2022-07-29T00:25:28;101825.53;;;16.26;62.62
72116;BME280;59991;52.140;5.428;2022-07-29T00:26:01;101825.91;;;16.24;62.57
72116;BME280;59991;52.140;5.428;2022-07-29T00:26:32;101823.56;;;16.22;62.24
72116;BME280;59991;52.140;5.428;2022-07-29T00:27:03;101819.22;;;16.21;62.46
72116;BME280;59991;52.140;5.428;2022-07-29T00:27:36;101813.72;;;16.25;62.23
72116;BME280;59991;52.140;5.428;2022-07-29T00:28:07;101824.34;;;16.23;62.74
72116;BME280;59991;52.140;5.428;2022-07-29T00:28:38;101814.13;;;16.23;62.41
72116;BME280;59991;52.140;5.428;2022-07-29T00:29:10;101819.25;;;16.25;62.67
72116;BME280;59991;52.140;5.428;2022-07-29T00:30:03;101825.53;;;16.26;62.58
72116;BME280;59991;52.140;5.428;2022-07-29T00:30:34;101814.13;;;16.23;62.47
72116;BME280;59991;52.140;5.428;2022-07-29T00:31:06;101817.28;;;16.26;62.46
72116;BME280;59991;52.140;5.428;2022-07-29T00:31:39;101816.47;;;16.25;62.45
72116;BME280;59991;52.140;5.428;2022-07-29T00:33:00;101816.47;;;16.25;62.62
72116;BME280;59991;52.140;5.428;2022-07-29T00:33:31;101818.84;;;16.27;62.47
72116;BME280;59991;52.140;5.428;2022-07-29T00:34:03;101810.19;;;16.24;62.15
72116;BME280;59991;52.140;5.428;2022-07-29T00:34:34;101808.22;;;16.25;62.54
72116;BME280;59991;52.140;5.428;2022-07-29T00:35:25;101808.63;;;16.23;62.59
72116;BME280;59991;52.140;5.428;2022-07-29T00:36:14;101810.59;;;16.23;62.66
72116;BME280;59991;52.140;5.428;2022-07-29T00:36:46;101804.69;;;16.21;62.38
72116;BME280;59991;52.140;5.428;2022-07-29T00:37:17;101808.22;;;16.21;62.54
72116;BME280;59991;52.140;5.428;2022-07-29T00:37:48;101807.44;;;16.21;62.62
72116;BME280;59991;52.140;5.428;2022-07-29T00:38:20;101800.34;;;16.20;62.18
72116;BME280;59991;52.140;5.428;2022-07-29T00:38:52;101810.19;;;16.21;63.02
72116;BME280;59991;52.140;5.428;2022-07-29T00:39:24;101805.06;;;16.19;62.63
72116;BME280;59991;52.140;5.428;2022-07-29T00:39:57;101809.78;;;16.22;62.63
72116;BME280;59991;52.140;5.428;2022-07-29T00:40:29;101796.03;;;16.19;62.44
72116;BME280;59991;52.140;5.428;2022-07-29T00:41:19;101799.56;;;16.19;62.49
72116;BME280;59991;52.140;5.428;2022-07-29T00:41:50;101798.78;;;16.19;62.58
72116;BME280;59991;52.140;5.428;2022-07-29T00:42:21;101798.38;;;16.17;63.07
72116;BME280;59991;52.140;5.428;2022-07-29T00:42:53;101798.38;;;16.17;63.04
72116;BME280;59991;52.140;5.428;2022-07-29T00:43:24;101803.50;;;16.18;63.00
72116;BME280;59991;52.140;5.428;2022-07-29T00:43:56;101792.88;;;16.17;62.80
72116;BME280;59991;52.140;5.428;2022-07-29T00:44:27;101798.38;;;16.17;62.90
72116;BME280;59991;52.140;5.428;2022-07-29T00:44:59;101793.28;;;16.12;62.95
72116;BME280;59991;52.140;5.428;2022-07-29T00:45:30;101798.78;;;16.12;62.72
72116;BME280;59991;52.140;5.428;2022-07-29T00:46:02;101804.69;;;16.10;62.66
72116;BME280;59991;52.140;5.428;2022-07-29T00:46:33;101803.09;;;16.09;63.09
72116;BME280;59991;52.140;5.428;2022-07-29T00:47:05;101802.31;;;16.09;63.27
72116;BME280;59991;52.140;5.428;2022-07-29T00:47:37;101799.97;;;16.07;62.51
72116;BME280;59991;52.140;5.428;2022-07-29T00:48:08;101801.94;;;16.07;63.01
72116;BME280;59991;52.140;5.428;2022-07-29T00:48:40;101797.19;;;16.04;62.95
72116;BME280;59991;52.140;5.428;2022-07-29T00:50:04;101799.16;;;16.07;62.86
72116;BME280;59991;52.140;5.428;2022-07-29T00:50:36;101802.31;;;16.05;62.80
72116;BME280;59991;52.140;5.428;2022-07-29T00:51:08;101807.03;;;16.05;62.81
72116;BME280;59991;52.140;5.428;2022-07-29T00:51:41;101801.91;;;16.03;63.31
72116;BME280;59991;52.140;5.428;2022-07-29T00:52:12;101797.19;;;16.04;62.97
72116;BME280;59991;52.140;5.428;2022-07-29T00:52:47;101799.16;;;16.03;63.11
72116;BME280;59991;52.140;5.428;2022-07-29T00:53:19;101795.22;;;16.01;63.30
72116;BME280;59991;52.140;5.428;2022-07-29T00:53:51;101797.59;;;16.02;63.28
72116;BME280;59991;52.140;5.428;2022-07-29T00:54:23;101793.66;;;16.03;63.22
72116;BME280;59991;52.140;5.428;2022-07-29T00:54:56;101795.63;;;16.03;63.08
72116;BME280;59991;52.140;5.428;2022-07-29T00:55:28;101799.16;;;16.03;63.27
72116;BME280;59991;52.140;5.428;2022-07-29T00:56:00;101798.38;;;16.03;62.97
72116;BME280;59991;52.140;5.428;2022-07-29T00:56:32;101794.84;;;16.02;63.42
72116;BME280;59991;52.140;5.428;2022-07-29T00:57:06;101790.13;;;15.99;62.76
72116;BME280;59991;52.140;5.428;2022-07-29T00:57:38;101792.88;;;16.03;63.27
72116;BME280;59991;52.140;5.428;2022-07-29T00:58:12;101790.50;;;16.01;63.19
72116;BME280;59991;52.140;5.428;2022-07-29T00:58:47;101796.81;;;16.02;63.37
72116;BME280;59991;52.140;5.428;2022-07-29T00:59:19;101795.22;;;16.01;63.21
72116;BME280;59991;52.140;5.428;2022-07-29T00:59:50;101783.03;;;16.02;63.38
72116;BME280;59991;52.140;5.428;2022-07-29T01:00:24;101788.53;;;15.98;63.32
72116;BME280;59991;52.140;5.428;2022-07-29T01:01:15;101797.97;;;15.97;63.76
72116;BME280;59991;52.140;5.428;2022-07-29T01:01:47;101792.09;;;15.95;63.70
72116;BME280;59991;52.140;5.428;2022-07-29T01:02:18;101788.16;;;15.93;63.78
72116;BME280;59991;52.140;5.428;2022-07-29T01:02:50;101782.25;;;15.91;63.72
72116;BME280;59991;52.140;5.428;2022-07-29T01:03:22;101795.22;;;15.90;63.53
72116;BME280;59991;52.140;5.428;2022-07-29T01:03:53;101790.50;;;15.87;63.78
72116;BME280;59991;52.140;5.428;2022-07-29T01:04:25;101792.84;;;15.88;63.43
72116;BME280;59991;52.140;5.428;2022-07-29T01:04:57;101796.78;;;15.87;63.87
72116;BME280;59991;52.140;5.428;2022-07-29T01:05:28;101790.09;;;15.88;64.03
72116;BME280;59991;52.140;5.428;2022-07-29T01:06:21;101791.69;;;15.89;63.52
72116;BME280;59991;52.140;5.428;2022-07-29T01:06:54;101790.50;;;15.91;63.61
72116;BME280;59991;52.140;5.428;2022-07-29T01:07:26;101796.78;;;15.91;63.82
72116;BME280;59991;52.140;5.428;2022-07-29T01:07:59;101789.34;;;15.92;63.82
72116;BME280;59991;52.140;5.428;2022-07-29T01:08:32;101791.69;;;15.89;63.77
72116;BME280;59991;52.140;5.428;2022-07-29T01:09:04;101797.59;;;15.92;63.53
72116;BME280;59991;52.140;5.428;2022-07-29T01:09:36;101785.78;;;15.91;63.68
72116;BME280;59991;52.140;5.428;2022-07-29T01:10:18;101791.28;;;15.91;63.75
72116;BME280;59991;52.140;5.428;2022-07-29T01:10:51;101782.66;;;15.89;63.52
72116;BME280;59991;52.140;5.428;2022-07-29T01:11:25;101786.56;;;15.88;63.48
72116;BME280;59991;52.140;5.428;2022-07-29T01:11:57;101793.66;;;15.89;63.92
72116;BME280;59991;52.140;5.428;2022-07-29T01:12:30;101784.59;;;15.88;63.64
72116;BME280;59991;52.140;5.428;2022-07-29T01:13:05;101777.91;;;15.86;63.80
72116;BME280;59991;52.140;5.428;2022-07-29T01:13:38;101785.78;;;15.87;63.55
72116;BME280;59991;52.140;5.428;2022-07-29T01:14:10;101781.84;;;15.88;63.78
72116;BME280;59991;52.140;5.428;2022-07-29T01:14:43;101785.78;;;15.87;63.98
72116;BME280;59991;52.140;5.428;2022-07-29T01:15:14;101776.72;;;15.83;63.57
72116;BME280;59991;52.140;5.428;2022-07-29T01:15:54;101781.47;;;15.86;63.92
72116;BME280;59991;52.140;5.428;2022-07-29T01:16:32;101778.72;;;15.86;64.09
72116;BME280;59991;52.140;5.428;2022-07-29T01:17:11;101777.91;;;15.86;64.09
72116;BME280;59991;52.140;5.428;2022-07-29T01:17:47;101776.34;;;15.85;63.98
72116;BME280;59991;52.140;5.428;2022-07-29T01:18:30;101782.22;;;15.83;64.15
72116;BME280;59991;52.140;5.428;2022-07-29T01:19:17;101788.91;;;15.86;63.70
72116;BME280;59991;52.140;5.428;2022-07-29T01:21:16;101781.47;;;15.86;63.92
72116;BME280;59991;52.140;5.428;2022-07-29T01:21:53;101783.41;;;15.82;64.04
72116;BME280;59991;52.140;5.428;2022-07-29T01:23:22;101783.00;;;15.80;63.62
72116;BME280;59991;52.140;5.428;2022-07-29T01:25:17;101784.59;;;15.81;63.53
72116;BME280;59991;52.140;5.428;2022-07-29T01:26:06;101781.06;;;15.77;63.57
72116;BME280;59991;52.140;5.428;2022-07-29T01:27:20;101777.13;;;15.75;64.18
72116;BME280;59991;52.140;5.428;2022-07-29T01:29:45;101780.66;;;15.72;64.30
72116;BME280;59991;52.140;5.428;2022-07-29T01:30:21;101775.16;;;15.72;64.36
72116;BME280;59991;52.140;5.428;2022-07-29T01:30:54;101777.13;;;15.71;64.47
72116;BME280;59991;52.140;5.428;2022-07-29T01:31:35;101779.84;;;15.68;64.15
72116;BME280;59991;52.140;5.428;2022-07-29T01:32:32;101772.38;;;15.68;63.94
72116;BME280;59991;52.140;5.428;2022-07-29T01:34:27;101781.41;;;15.65;64.12
72116;BME280;59991;52.140;5.428;2022-07-29T01:35:05;101775.91;;;15.62;64.17
72116;BME280;59991;52.140;5.428;2022-07-29T01:35:41;101768.44;;;15.62;64.57
72116;BME280;59991;52.140;5.428;2022-07-29T01:36:17;101781.00;;;15.63;63.93
72116;BME280;59991;52.140;5.428;2022-07-29T01:37:08;101780.22;;;15.63;63.92
72116;BME280;59991;52.140;5.428;2022-07-29T01:37:47;101771.97;;;15.63;64.15
72116;BME280;59991;52.140;5.428;2022-07-29T01:38:39;101781.00;;;15.63;64.10
72116;BME280;59991;52.140;5.428;2022-07-29T01:39:18;101777.09;;;15.64;64.17
72116;BME280;59991;52.140;5.428;2022-07-29T01:39:52;101777.09;;;15.64;64.27
72116;BME280;59991;52.140;5.428;2022-07-29T01:40:29;101770.00;;;15.63;63.97
72116;BME280;59991;52.140;5.428;2022-07-29T01:41:05;101771.59;;;15.64;63.94
72116;BME280;59991;52.140;5.428;2022-07-29T01:41:49;101778.25;;;15.63;63.91
72116;BME280;59991;52.140;5.428;2022-07-29T01:42:34;101777.09;;;15.64;64.07
72116;BME280;59991;52.140;5.428;2022-07-29T01:43:10;101774.72;;;15.63;64.17
72116;BME280;59991;52.140;5.428;2022-07-29T01:43:53;101780.59;;;15.61;64.45
72116;BME280;59991;52.140;5.428;2022-07-29T01:44:41;101775.50;;;15.60;64.20
72116;BME280;59991;52.140;5.428;2022-07-29T01:47:21;101782.56;;;15.57;64.59
72116;BME280;59991;52.140;5.428;2022-07-29T01:48:31;101784.09;;;15.54;64.36
72116;BME280;59991;52.140;5.428;2022-07-29T01:49:11;101782.53;;;15.53;64.23
72116;BME280;59991;52.140;5.428;2022-07-29T01:50:07;101792.75;;;15.53;64.47
72116;BME280;59991;52.140;5.428;2022-07-29T01:50:46;101791.56;;;15.54;64.66
72116;BME280;59991;52.140;5.428;2022-07-29T01:51:21;101784.09;;;15.54;64.69
72116;BME280;59991;52.140;5.428;2022-07-29T01:52:09;101781.75;;;15.53;65.00
72116;BME280;59991;52.140;5.428;2022-07-29T01:52:46;101783.31;;;15.54;64.75
72116;BME280;59991;52.140;5.428;2022-07-29T01:53:32;101794.31;;;15.54;64.58
72116;BME280;59991;52.140;5.428;2022-07-29T01:54:32;101787.66;;;15.55;64.59
72116;BME280;59991;52.140;5.428;2022-07-29T01:55:10;101784.50;;;15.53;64.84
72116;BME280;59991;52.140;5.428;2022-07-29T01:55:45;101782.53;;;15.53;64.70
72116;BME280;59991;52.140;5.428;2022-07-29T01:56:18;101780.97;;;15.52;64.44
72116;BME280;59991;52.140;5.428;2022-07-29T01:57:13;101785.28;;;15.53;64.93
72116;BME280;59991;52.140;5.428;2022-07-29T01:57:48;101783.31;;;15.54;65.18
72116;BME280;59991;52.140;5.428;2022-07-29T01:58:20;101788.47;;;15.56;64.24
72116;BME280;59991;52.140;5.428;2022-07-29T01:58:53;101786.06;;;15.54;64.69
72116;BME280;59991;52.140;5.428;2022-07-29T01:59:25;101782.13;;;15.51;64.93
72116;BME280;59991;52.140;5.428;2022-07-29T01:59:59;101784.88;;;15.51;64.95
72116;BME280;59991;52.140;5.428;2022-07-29T02:00:33;101786.47;;;15.52;65.05
72116;BME280;59991;52.140;5.428;2022-07-29T02:01:57;101784.91;;;15.55;64.29
72116;BME280;59991;52.140;5.428;2022-07-29T02:02:30;101789.59;;;15.54;64.57
72116;BME280;59991;52.140;5.428;2022-07-29T02:03:07;101788.81;;;15.54;64.42
72116;BME280;59991;52.140;5.428;2022-07-29T02:03:43;101775.84;;;15.51;64.26
72116;BME280;59991;52.140;5.428;2022-07-29T02:04:18;101786.84;;;15.51;64.52
72116;BME280;59991;52.140;5.428;2022-07-29T02:05:01;101779.78;;;15.50;64.67
72116;BME280;59991;52.140;5.428;2022-07-29T02:05:35;101780.16;;;15.48;64.17
72116;BME280;59991;52.140;5.428;2022-07-29T02:06:09;101779.38;;;15.48;64.48
72116;BME280;59991;52.140;5.428;2022-07-29T02:06:42;101777.78;;;15.47;64.77
72116;BME280;59991;52.140;5.428;2022-07-29T02:07:18;101786.44;;;15.49;64.54
72116;BME280;59991;52.140;5.428;2022-07-29T02:07:52;101776.63;;;15.48;64.39
72116;BME280;59991;52.140;5.428;2022-07-29T02:08:26;101778.56;;;15.47;64.47
72116;BME280;59991;52.140;5.428;2022-07-29T02:09:00;101778.59;;;15.51;64.69
72116;BME280;59991;52.140;5.428;2022-07-29T02:09:35;101777.03;;;15.50;64.82
72116;BME280;59991;52.140;5.428;2022-07-29T02:10:09;101782.13;;;15.51;64.67
72116;BME280;59991;52.140;5.428;2022-07-29T02:11:00;101779.38;;;15.51;64.41
72116;BME280;59991;52.140;5.428;2022-07-29T02:11:33;101778.59;;;15.51;64.27
72116;BME280;59991;52.140;5.428;2022-07-29T02:12:05;101784.50;;;15.53;64.60
72116;BME280;59991;52.140;5.428;2022-07-29T02:12:39;101786.47;;;15.52;64.67
72116;BME280;59991;52.140;5.428;2022-07-29T02:13:12;101784.50;;;15.53;64.28
72116;BME280;59991;52.140;5.428;2022-07-29T02:13:47;101784.50;;;15.53;64.52
72116;BME280;59991;52.140;5.428;2022-07-29T02:14:21;101782.91;;;15.52;64.90
72116;BME280;59991;52.140;5.428;2022-07-29T02:14:54;101789.59;;;15.51;64.60
72116;BME280;59991;52.140;5.428;2022-07-29T02:15:30;101780.16;;;15.52;64.67
72116;BME280;59991;52.140;5.428;2022-07-29T02:16:05;101786.47;;;15.52;64.67
72116;BME280;59991;52.140;5.428;2022-07-29T02:16:39;101780.16;;;15.52;64.49
72116;BME280;59991;52.140;5.428;2022-07-29T02:18:16;101779.00;;;15.53;64.49
72116;BME280;59991;52.140;5.428;2022-07-29T02:18:51;101783.72;;;15.52;64.59
72116;BME280;59991;52.140;5.428;2022-07-29T02:19:25;101782.91;;;15.52;64.80
72116;BME280;59991;52.140;5.428;2022-07-29T02:20:16;101780.16;;;15.52;64.78
72116;BME280;59991;52.140;5.428;2022-07-29T02:20:50;101776.63;;;15.51;65.29
72116;BME280;59991;52.140;5.428;2022-07-29T02:21:25;101784.09;;;15.51;65.08
72116;BME280;59991;52.140;5.428;2022-07-29T02:21:58;101776.63;;;15.48;65.18
72116;BME280;59991;52.140;5.428;2022-07-29T02:22:50;101778.59;;;15.51;64.72
72116;BME280;59991;52.140;5.428;2022-07-29T02:24:51;101779.78;;;15.50;64.53
72116;BME280;59991;52.140;5.428;2022-07-29T02:25:24;101775.03;;;15.47;64.69
72116;BME280;59991;52.140;5.428;2022-07-29T02:26:08;101775.81;;;15.47;65.62
72116;BME280;59991;52.140;5.428;2022-07-29T02:26:41;101777.00;;;15.46;65.21
72116;BME280;59991;52.140;5.428;2022-07-29T02:27:14;101778.97;;;15.46;64.84
72116;BME280;59991;52.140;5.428;2022-07-29T02:27:47;101778.19;;;15.45;65.48
72116;BME280;59991;52.140;5.428;2022-07-29T02:28:22;101778.97;;;15.46;65.07
72116;BME280;59991;52.140;5.428;2022-07-29T02:28:56;101775.44;;;15.45;65.37
72116;BME280;59991;52.140;5.428;2022-07-29T02:29:30;101777.78;;;15.47;65.16
72116;BME280;59991;52.140;5.428;2022-07-29T02:30:22;101774.25;;;15.46;64.98
72116;BME280;59991;52.140;5.428;2022-07-29T02:31:16;101774.63;;;15.45;65.29
72116;BME280;59991;52.140;5.428;2022-07-29T02:31:51;101777.38;;;15.45;65.08
72116;BME280;59991;52.140;5.428;2022-07-29T02:32:24;101773.06;;;15.44;65.54
72116;BME280;59991;52.140;5.428;2022-07-29T02:32:58;101774.63;;;15.45;65.21
72116;BME280;59991;52.140;5.428;2022-07-29T02:33:31;101771.09;;;15.44;65.43
72116;BME280;59991;52.140;5.428;2022-07-29T02:34:55;101778.56;;;15.44;65.06
72116;BME280;59991;52.140;5.428;2022-07-29T02:35:27;101771.50;;;15.43;65.45
72116;BME280;59991;52.140;5.428;2022-07-29T02:36:05;101769.91;;;15.42;65.05
72116;BME280;59991;52.140;5.428;2022-07-29T02:36:37;101771.09;;;15.41;65.24
72116;BME280;59991;52.140;5.428;2022-07-29T02:37:10;101761.25;;;15.40;64.96
72116;BME280;59991;52.140;5.428;2022-07-29T02:37:44;101772.25;;;15.40;65.50
72116;BME280;59991;52.140;5.428;2022-07-29T02:38:37;101768.34;;;15.37;64.95
72116;BME280;59991;52.140;5.428;2022-07-29T02:39:22;101768.34;;;15.37;65.33
72116;BME280;59991;52.140;5.428;2022-07-29T02:39:57;101766.38;;;15.38;65.01
72116;BME280;59991;52.140;5.428;2022-07-29T02:41:23;101769.91;;;15.38;64.97
72116;BME280;59991;52.140;5.428;2022-07-29T02:42:06;101767.56;;;15.37;65.34
72116;BME280;59991;52.140;5.428;2022-07-29T02:42:41;101771.09;;;15.37;65.21
72116;BME280;59991;52.140;5.428;2022-07-29T02:43:13;101767.94;;;15.35;65.25
72116;BME280;59991;52.140;5.428;2022-07-29T02:43:47;101765.97;;;15.36;65.32
72116;BME280;59991;52.140;5.428;2022-07-29T02:44:23;101760.50;;;15.36;65.68
72116;BME280;59991;52.140;5.428;2022-07-29T02:44:55;101762.84;;;15.34;65.72
72116;BME280;59991;52.140;5.428;2022-07-29T02:45:28;101765.59;;;15.34;65.22
72116;BME280;59991;52.140;5.428;2022-07-29T02:46:02;101765.97;;;15.36;65.22
72116;BME280;59991;52.140;5.428;2022-07-29T02:47:49;101764.00;;;15.33;65.57
72116;BME280;59991;52.140;5.428;2022-07-29T02:48:27;101766.75;;;15.33;65.54
72116;BME280;59991;52.140;5.428;2022-07-29T02:49:10;101759.69;;;15.32;65.37
72116;BME280;59991;52.140;5.428;2022-07-29T02:50:11;101766.75;;;15.33;65.60
72116;BME280;59991;52.140;5.428;2022-07-29T02:50:51;101769.88;;;15.31;65.59
72116;BME280;59991;52.140;5.428;2022-07-29T02:51:33;101764.38;;;15.31;65.30
72116;BME280;59991;52.140;5.428;2022-07-29T02:52:23;101769.88;;;15.31;65.51
72116;BME280;59991;52.140;5.428;2022-07-29T02:53:00;101765.19;;;15.32;65.89
72116;BME280;59991;52.140;5.428;2022-07-29T02:53:34;101765.19;;;15.32;65.60
72116;BME280;59991;52.140;5.428;2022-07-29T02:54:37;101761.66;;;15.31;65.56
72116;BME280;59991;52.140;5.428;2022-07-29T02:55:37;101769.88;;;15.31;65.36
72116;BME280;59991;52.140;5.428;2022-07-29T02:56:14;101765.19;;;15.32;65.44
72116;BME280;59991;52.140;5.428;2022-07-29T02:56:47;101761.66;;;15.31;66.06
72116;BME280;59991;52.140;5.428;2022-07-29T02:57:27;101767.13;;;15.31;65.92
72116;BME280;59991;52.140;5.428;2022-07-29T02:58:15;101765.19;;;15.32;66.03
72116;BME280;59991;52.140;5.428;2022-07-29T02:58:58;101757.72;;;15.32;66.17
72116;BME280;59991;52.140;5.428;2022-07-29T02:59:33;101767.94;;;15.32;66.27
72116;BME280;59991;52.140;5.428;2022-07-29T03:00:08;101759.28;;;15.33;65.78
72116;BME280;59991;52.140;5.428;2022-07-29T03:00:43;101761.66;;;15.31;65.95
72116;BME280;59991;52.140;5.428;2022-07-29T03:01:22;101761.25;;;15.33;65.86
72116;BME280;59991;52.140;5.428;2022-07-29T03:02:13;101764.00;;;15.33;65.92
72116;BME280;59991;52.140;5.428;2022-07-29T03:02:50;101765.19;;;15.32;65.82
72116;BME280;59991;52.140;5.428;2022-07-29T03:03:25;101771.47;;;15.32;65.85
72116;BME280;59991;52.140;5.428;2022-07-29T03:04:01;101766.34;;;15.31;66.08
72116;BME280;59991;52.140;5.428;2022-07-29T03:04:34;101759.28;;;15.30;65.72
72116;BME280;59991;52.140;5.428;2022-07-29T03:05:20;101762.44;;;15.32;65.63
72116;BME280;59991;52.140;5.428;2022-07-29T03:05:56;101763.97;;;15.29;65.20
72116;BME280;59991;52.140;5.428;2022-07-29T03:06:28;101767.53;;;15.30;65.68
72116;BME280;59991;52.140;5.428;2022-07-29T03:07:11;101765.53;;;15.27;65.44
72116;BME280;59991;52.140;5.428;2022-07-29T03:07:47;101770.66;;;15.28;65.50
72116;BME280;59991;52.140;5.428;2022-07-29T03:08:20;101767.13;;;15.28;65.31
72116;BME280;59991;52.140;5.428;2022-07-29T03:08:53;101769.06;;;15.27;65.49
72116;BME280;59991;52.140;5.428;2022-07-29T03:09:44;101762.78;;;15.27;65.37
72116;BME280;59991;52.140;5.428;2022-07-29T03:10:16;101764.38;;;15.28;65.46
72116;BME280;59991;52.140;5.428;2022-07-29T03:11:41;101761.63;;;15.28;66.04
72116;BME280;59991;52.140;5.428;2022-07-29T03:12:22;101753.75;;;15.26;65.66
72116;BME280;59991;52.140;5.428;2022-07-29T03:12:55;101766.34;;;15.27;65.46
72116;BME280;59991;52.140;5.428;2022-07-29T03:13:27;101763.97;;;15.29;65.77
72116;BME280;59991;52.140;5.428;2022-07-29T03:14:18;101767.53;;;15.30;65.77
72116;BME280;59991;52.140;5.428;2022-07-29T03:15:45;101756.53;;;15.30;66.01
72116;BME280;59991;52.140;5.428;2022-07-29T03:16:18;101759.66;;;15.28;65.47
72116;BME280;59991;52.140;5.428;2022-07-29T03:17:09;101755.34;;;15.27;65.94
72116;BME280;59991;52.140;5.428;2022-07-29T03:17:41;101768.28;;;15.27;66.01
72116;BME280;59991;52.140;5.428;2022-07-29T03:18:14;101756.50;;;15.26;65.85
72116;BME280;59991;52.140;5.428;2022-07-29T03:18:47;101752.97;;;15.26;66.03
72116;BME280;59991;52.140;5.428;2022-07-29T03:19:19;101756.50;;;15.26;65.60
72116;BME280;59991;52.140;5.428;2022-07-29T03:19:51;101756.09;;;15.24;65.80
72116;BME280;59991;52.140;5.428;2022-07-29T03:20:23;101752.97;;;15.26;66.02
72116;BME280;59991;52.140;5.428;2022-07-29T03:20:54;101757.31;;;15.27;65.64
72116;BME280;59991;52.140;5.428;2022-07-29T03:21:26;101744.34;;;15.24;65.85
72116;BME280;59991;52.140;5.428;2022-07-29T03:22:15;101751.00;;;15.26;66.10
72116;BME280;59991;52.140;5.428;2022-07-29T03:22:49;101751.81;;;15.27;66.25
72116;BME280;59991;52.140;5.428;2022-07-29T03:23:22;101760.44;;;15.25;66.01
72116;BME280;59991;52.140;5.428;2022-07-29T03:23:54;101755.72;;;15.26;66.02
72116;BME280;59991;52.140;5.428;2022-07-29T03:24:35;101752.19;;;15.25;66.31
72116;BME280;59991;52.140;5.428;2022-07-29T03:25:08;101752.56;;;15.24;66.14
72116;BME280;59991;52.140;5.428;2022-07-29T03:25:39;101754.16;;;15.25;65.82
72116;BME280;59991;52.140;5.428;2022-07-29T03:26:12;101754.56;;;15.27;65.88
72116;BME280;59991;52.140;5.428;2022-07-29T03:26:44;101752.19;;;15.25;65.51
72116;BME280;59991;52.140;5.428;2022-07-29T03:27:15;101745.91;;;15.25;65.75
72116;BME280;59991;52.140;5.428;2022-07-29T03:27:47;101745.91;;;15.25;66.00
72116;BME280;59991;52.140;5.428;2022-07-29T03:28:19;101750.22;;;15.26;65.86
72116;BME280;59991;52.140;5.428;2022-07-29T03:28:52;101750.22;;;15.26;65.90
72116;BME280;59991;52.140;5.428;2022-07-29T03:29:24;101749.44;;;15.25;65.87
72116;BME280;59991;52.140;5.428;2022-07-29T03:30:06;101743.16;;;15.25;66.11